You are listening to:
YPDN Gnd/Twr/App/Dep - Darwin, Northern Territory, Australia

YPDN 060930Z 35003KT CAVOK 22/12 Q1013

If stream doesn't start automatically press the play button
If stream stops then reload player then press play